Ackerman, MS

12:47 AM CDT on July 23, 2014 (GMT -0500)
RAWS TOMBIGBEE MS US (MTNFM6) Elev 549 ft | 33.28 °N, 89.14 °W | Change Station

Current weather conditions updated 47 minutes ago

Mostly Cloudy
Mostly Cloudy
74 °F
Feels Like 71 °F
N
1
Wind Variable Wind from SW
Gusts 3.0 mph

Today is forecast to be Warmer than yesterday. Showers and thunderstorms late.

Today
High -- | Low -- °F
--% Chance of Precip.
Yesterday
High -- | Low -- °F
Precip. -- in
6:03 AM 8:02 PM
Waning Crescent, 12% visible
Pressure 30.07 in
Visibility 3.0 miles
Clouds Clear
Heat Index 71 °F
Dew Point 73 °F
Humidity 97%
Rainfall -9999.00 in
Snow Depth Not available.
UV 0 out of 12
Pollen 3.40 out of 12
Air Quality Not available.
Flu Activity Not available.
METAR KSTF 230535Z AUTO 00000KT 3SM BR CLR 22/22 A3007 RMK AO2

More Conditions Fewer Conditions

Pressure 30.07 in
Visibility 3.0 miles
Clouds Clear
Heat Index 71 °F
Dew Point 73 °F
Humidity 97%
Rainfall -9999.00 in
Snow Depth Not available.
UV 0 out of 12
Pollen 3.40 out of 12
Air Quality Not available.
Flu Activity Not available.
METAR KSTF 230535Z AUTO 00000KT 3SM BR CLR 22/22 A3007 RMK AO2

More Conditions Fewer Conditions

10-Day Weather Forecast

Almanac

Astronomy

Jul. 23, 2014 Rise Set
Actual Time 6:03 AM CDT 8:02 PM CDT
Civil Twilight 5:35 AM CDT 8:30 PM CDT
Nautical Twilight 5:01 AM CDT 9:04 PM CDT
Astronomical Twilight 4:25 AM CDT 9:39 PM CDT
Moon 3:21 AM CDT 5:32 PM CDT
Length of Visible Light 14h 54m
Length of Day
13h 59m
Tomorrow will be 1m 19s shorter.
Waning Crescent, 12% of the Moon is Illuminated
Today
Waning Crescent
Jul 26
New
Aug 3
First Quarter
Aug 10
Full
Aug 17
Last Quarter

Today's Extremes

State Highs State Lows

Community

WunderPhotos

Upload Photos

1,736,515 photos uploaded!

Nearby

Snow Depth

Station Depth Elevation
No new snow has been reported.

Earthquake Activity

City Distance Mag. Time & Date
No recent earthquake activity has been reported nearby.
Minimum magnitude displayed is 2.5.

Coastal Water Temperatures

Place Temperature
No Stations Reporting

Nearby Weather Stations

Station Location Temp. Heat Index Dew Point Humidity Wind Precip. Elev Updated Type
RAWS TOMBIGBEE MS, Ackerman, MS 74 °F 71 °F 73 °F 97% SW  at  1 mph 0.00 in / hr 549 ft 12:00 AM CDT MADIS

Show More Stations Show Fewer Stations